Flight Track Log - Related Links

Times and Time Zones

All times are in EDT time to prevent confusion due to time zone crossing. See the FDX128 flight status page for this flight to view local times or setup timezone preferences in your user account.

Time Position Orientation Groundspeed Altitude Reporting Facility
EDT Latitude Longitude Course Direction KTS MPH feet Rate Location/Type
Sun 06:02:53 PM 35.0167 -89.9667 180° South 178 205 1,200  Level KMEM
Sun 06:03:59 PM 34.9667 -89.9667 180° South 219 252 2,400 1,368 Climbing KMEM
Sun 06:04:47 PM 34.9167 -89.9167 141° Southeast 274 315 3,800 2,400 Climbing KMEM
Sun 06:05:59 PM 34.9833 -89.8500 39° Northeast 280 322 7,200 2,377 Climbing KMEM
Sun 06:07:21 PM 35.0761 -89.8067 21° North 285 328 9,900 1,333 Climbing Memphis Center
Sun 06:08:23 PM 35.1594 -89.7619 24° Northeast 327 376 10,400 1,161 Climbing Memphis Center
Sun 06:09:25 PM 35.2747 -89.7050 22° Northeast 374 430 12,300 1,839 Climbing Memphis Center
Sun 06:10:27 PM 35.3761 -89.6531 23° Northeast 388 447 14,200 1,790 Climbing Memphis Center
Sun 06:11:29 PM 35.4811 -89.5994 23° Northeast 401 461 16,000 1,694 Climbing Memphis Center
Sun 06:12:31 PM 35.5878 -89.5458 22° Northeast 406 467 17,700 1,500 Climbing Memphis Center
Sun 06:13:33 PM 35.7014 -89.4783 26° Northeast 423 487 19,100 1,258 Climbing Memphis Center
Sun 06:14:35 PM 35.8058 -89.3989 32° Northeast 437 503 20,300 1,258 Climbing Memphis Center
Sun 06:15:37 PM 35.9122 -89.3189 31° Northeast 447 514 21,700 1,258 Climbing Memphis Center
Sun 06:16:39 PM 36.0197 -89.2381 31° Northeast 452 520 22,900 950 Climbing Memphis Center
Sun 06:21:56 PM 36.6470 -88.7640 31° Northeast 509 586 27,700 909 Climbing FlightAware ADS-B
Sun 06:22:29 PM 36.7130 -88.7130 32° Northeast 509 586 28,200 1,013 Climbing FlightAware ADS-B
Sun 06:23:13 PM 36.8030 -88.6440 32° Northeast 512 589 29,000 913 Climbing FlightAware ADS-B
Sun 06:24:01 PM 36.8680 -88.5940 32° Northeast 516 594 29,600 714 Climbing FlightAware ADS-B
Sun 06:24:37 PM 36.9710 -88.5140 32° Northeast 517 595 30,000 696 Climbing FlightAware ADS-B
Sun 06:25:10 PM 37.0390 -88.4610 32° Northeast 520 598 30,400 706 Climbing FlightAware ADS-B
Sun 06:25:45 PM 37.1110 -88.4060 31° Northeast 520 598 30,800 701 Climbing FlightAware ADS-B
Sun 06:26:27 PM 37.1980 -88.3380 32° Northeast 520 598 31,300 923 Climbing FlightAware ADS-B
Sun 06:27:03 PM 37.2720 -88.2810 32° Northeast 515 593 32,000 917 Climbing FlightAware ADS-B
Sun 06:27:39 PM 37.3450 -88.2230 32° Northeast 516 594 32,400 618 Climbing FlightAware ADS-B
Sun 06:28:11 PM 37.4100 -88.1730 31° Northeast 516 594 32,700 706 Climbing FlightAware ADS-B
Sun 06:28:47 PM 37.4820 -88.1170 32° Northeast 513 590 33,200 750 Climbing FlightAware ADS-B
Sun 06:29:23 PM 37.5560 -88.0580 32° Northeast 511 588 33,600 618 Climbing FlightAware ADS-B
Sun 06:29:55 PM 37.6190 -88.0080 32° Northeast 511 588 33,900 529 Climbing FlightAware ADS-B
Sun 06:30:31 PM 37.6920 -87.9510 32° Northeast 512 589 34,200 469 Climbing FlightAware ADS-B
Sun 06:30:59 PM 37.7440 -87.8990 38° Northeast 518 596 34,400 469 Climbing FlightAware ADS-B
Sun 06:31:35 PM 37.8010 -87.8170 49° Northeast 519 597 34,700 500 Climbing FlightAware ADS-B
Sun 06:32:11 PM 37.8590 -87.7350 48° Northeast 516 594 35,000 257 Climbing FlightAware ADS-B
Sun 06:32:45 PM 37.9110 -87.6600 49° Northeast 515 593 35,000  Level FlightAware ADS-B
Sun 06:33:17 PM 37.9620 -87.5850 49° Northeast 514 592 35,000  Level FlightAware ADS-B
Sun 06:33:56 PM 38.0230 -87.4960 49° Northeast 514 592 35,000  Level FlightAware ADS-B
Sun 06:34:31 PM 38.0750 -87.4180 50° Northeast 514 592 35,000  Level FlightAware ADS-B
Sun 06:35:04 PM 38.1280 -87.3400 49° Northeast 513 590 35,000  Level FlightAware ADS-B
Sun 06:35:38 PM 38.1810 -87.2620 49° Northeast 514 592 35,000  Level FlightAware ADS-B
Sun 06:36:16 PM 38.2390 -87.1750 50° Northeast 514 592 35,000  Level FlightAware ADS-B
Sun 06:36:47 PM 38.2850 -87.1060 50° Northeast 514 592 35,000  Level FlightAware ADS-B
Sun 06:37:27 PM 38.3490 -87.0120 49° Northeast 514 592 35,000  Level FlightAware ADS-B
Sun 06:38:02 PM 38.4030 -86.9310 50° Northeast 513 590 35,000  Level FlightAware ADS-B
Sun 06:38:34 PM 38.4530 -86.8550 50° Northeast 512 589 35,000  Level FlightAware ADS-B
Sun 06:39:09 PM 38.5060 -86.7770 49° Northeast 512 589 35,000  Level FlightAware ADS-B
Sun 06:39:45 PM 38.5600 -86.6960 50° Northeast 512 589 35,000  Level FlightAware ADS-B
Sun 06:40:15 PM 38.6070 -86.6240 50° Northeast 511 588 35,000  Level FlightAware ADS-B
Sun 06:40:56 PM 38.6680 -86.5320 50° Northeast 511 588 35,000  Level FlightAware ADS-B
Sun 06:41:28 PM 38.7180 -86.4550 50° Northeast 511 588 35,000  Level FlightAware ADS-B
Sun 06:42:04 PM 38.7710 -86.3750 50° Northeast 511 588 35,000  Level FlightAware ADS-B
Sun 06:42:42 PM 38.8310 -86.2840 50° Northeast 509 586 35,000  Level FlightAware ADS-B
Sun 06:43:10 PM 38.8720 -86.2220 50° Northeast 509 586 35,000  Level FlightAware ADS-B
Sun 06:43:48 PM 38.9260 -86.1380 50° Northeast 509 586 35,000  Level FlightAware ADS-B
Sun 06:44:26 PM 38.9860 -86.0460 50° Northeast 509 586 35,000  Level FlightAware ADS-B
Sun 06:44:58 PM 39.0350 -85.9690 51° Northeast 509 586 35,000  Level FlightAware ADS-B
Sun 06:45:34 PM 39.0910 -85.8850 49° Northeast 510 587 35,000  Level FlightAware ADS-B
Sun 06:46:10 PM 39.1450 -85.8000 51° Northeast 511 588 35,000  Level FlightAware ADS-B
Sun 06:46:45 PM 39.1940 -85.7230 51° Northeast 512 589 35,000  Level FlightAware ADS-B
Sun 06:47:19 PM 39.2490 -85.6380 50° Northeast 512 589 35,000  Level FlightAware ADS-B
Sun 06:47:55 PM 39.3020 -85.5560 50° Northeast 512 589 35,000 86 Level FlightAware ADS-B
Sun 06:48:29 PM 39.3530 -85.4750 51° Northeast 513 590 35,100 86 Climbing FlightAware ADS-B
Sun 06:49:05 PM 39.4090 -85.3880 50° Northeast 513 590 35,100  Level FlightAware ADS-B
Sun 06:49:40 PM 39.4610 -85.3050 51° Northeast 513 590 35,100  Level FlightAware ADS-B
Sun 06:50:17 PM 39.5170 -85.2170 50° Northeast 513 590 35,100 -87 Level FlightAware ADS-B
Sun 06:50:49 PM 39.5650 -85.1410 51° Northeast 513 590 35,000 -90 Descending FlightAware ADS-B
Sun 06:51:24 PM 39.6160 -85.0600 51° Northeast 512 589 35,000 83 Level FlightAware ADS-B
Sun 06:52:01 PM 39.6720 -84.9700 51° Northeast 511 588 35,100 87 Climbing FlightAware ADS-B
Sun 06:52:33 PM 39.7210 -84.8930 50° Northeast 510 587 35,100 -87 Level FlightAware ADS-B
Sun 06:53:10 PM 39.7770 -84.8050 50° Northeast 508 585 35,000 -82 Descending FlightAware ADS-B
Sun 06:53:46 PM 39.8290 -84.7200 51° Northeast 509 586 35,000  Level FlightAware ADS-B
Sun 06:54:20 PM 39.8790 -84.6420 50° Northeast 507 583 35,000  Level FlightAware ADS-B
Sun 06:54:54 PM 39.9270 -84.5610 52° Northeast 506 582 35,000  Level FlightAware ADS-B
Sun 06:55:29 PM 39.9810 -84.4800 49° Northeast 502 578 35,000  Level FlightAware ADS-B
Sun 06:56:05 PM 40.0490 -84.4100 38° Northeast 499 574 35,000  Level FlightAware ADS-B
Sun 06:56:39 PM 40.1100 -84.3460 39° Northeast 499 574 35,000  Level FlightAware ADS-B
Sun 06:57:13 PM 40.1710 -84.2830 38° Northeast 498 573 35,000  Level FlightAware ADS-B
Sun 06:57:49 PM 40.2350 -84.2170 38° Northeast 497 572 35,000  Level FlightAware ADS-B
Sun 06:58:23 PM 40.2990 -84.1520 38° Northeast 496 571 35,000  Level FlightAware ADS-B
Sun 06:58:58 PM 40.3600 -84.0890 38° Northeast 496 571 35,000  Level FlightAware ADS-B
Sun 06:59:35 PM 40.4260 -84.0200 39° Northeast 495 570 35,000  Level FlightAware ADS-B
Sun 07:00:09 PM 40.4870 -83.9560 39° Northeast 495 570 35,000  Level FlightAware ADS-B
Sun 07:00:45 PM 40.5540 -83.8850 39° Northeast 496 571 35,000  Level FlightAware ADS-B
Sun 07:01:20 PM 40.6150 -83.8200 39° Northeast 495 570 35,000 88 Level FlightAware ADS-B
Sun 07:01:53 PM 40.6750 -83.7580 38° Northeast 496 571 35,100 87 Climbing FlightAware ADS-B
Sun 07:02:29 PM 40.7400 -83.6900 38° Northeast 495 570 35,100  Level FlightAware ADS-B
Sun 07:03:06 PM 40.8050 -83.6210 39° Northeast 496 571 35,100  Level FlightAware ADS-B
Sun 07:03:41 PM 40.8680 -83.5540 39° Northeast 495 570 35,100  Level FlightAware ADS-B
Sun 07:04:17 PM 40.9320 -83.4860 39° Northeast 496 571 35,100  Level FlightAware ADS-B
Sun 07:04:50 PM 40.9900 -83.4250 38° Northeast 495 570 35,100  Level FlightAware ADS-B
Sun 07:05:27 PM 41.0560 -83.3550 39° Northeast 495 570 35,100  Level FlightAware ADS-B
Sun 07:06:03 PM 41.1230 -83.2840 39° Northeast 495 570 35,100 -269 Level FlightAware ADS-B
Sun 07:06:34 PM 41.1760 -83.2270 39° Northeast 487 560 34,800 -618 Descending FlightAware ADS-B
Sun 07:07:11 PM 41.2410 -83.1560 39° Northeast 484 557 34,400 -740 Descending FlightAware ADS-B
Sun 07:07:47 PM 41.3030 -83.0900 39° Northeast 485 558 33,900 -794 Descending FlightAware ADS-B
Sun 07:08:19 PM 41.3600 -83.0280 39° Northeast 486 559 33,500 -706 Descending FlightAware ADS-B
Sun 07:08:55 PM 41.4210 -82.9620 39° Northeast 486 559 33,100 -455 Descending FlightAware ADS-B
Sun 07:09:25 PM 41.4740 -82.9050 39° Northeast 488 562 33,000 -85 Descending FlightAware ADS-B
Sun 07:10:06 PM 41.5460 -82.8270 39° Northeast 489 563 33,000  Level FlightAware ADS-B
Sun 07:10:41 PM 41.6090 -82.7580 39° Northeast 491 565 33,000  Level FlightAware ADS-B
Sun 07:11:24 PM 41.6760 -82.6850 39° Northeast 490 564 33,000  Level FlightAware ADS-B
Sun 07:11:56 PM 41.7400 -82.6160 39° Northeast 490 564 33,000  Level FlightAware ADS-B
Sun 07:12:32 PM 41.8030 -82.5460 40° Northeast 491 565 33,000 81 Level FlightAware ADS-B
Sun 07:13:10 PM 41.8410 -82.5030 40° Northeast 492 566 33,100  Climbing FlightAware ADS-B
Sun 07:13:57 PM 41.9290 -82.4060 39° Northeast 493 567 33,000 -72 Descending FlightAware ADS-B
Sun 07:14:33 PM 42.0140 -82.3120 39° Northeast 497 572 33,000  Level FlightAware ADS-B
Sun 07:15:09 PM 42.0800 -82.2390 39° Northeast 499 574 33,000  Level FlightAware ADS-B
Sun 07:15:41 PM 42.1350 -82.1780 39° Northeast 500 575 33,000  Level FlightAware ADS-B
Sun 07:16:15 PM 42.1980 -82.1060 40° Northeast 501 577 33,000 -257 Level FlightAware ADS-B
Sun 07:16:51 PM 42.2610 -82.0360 39° Northeast 498 573 32,700 -358 Descending FlightAware ADS-B
Sun 07:17:22 PM 42.2940 -82.0010 38° Northeast 489 563 32,600 -583 Descending FlightAware ADS-B
Sun 07:18:03 PM 42.3760 -81.9070 40° Northeast 491 565 32,000 -750 Descending FlightAware ADS-B
Sun 07:18:34 PM 42.4190 -81.8570 41° Northeast 493 567 31,700 -686 Descending FlightAware ADS-B
Sun 07:19:13 PM 42.4910 -81.7760 40° Northeast 489 563 31,200 -771 Descending FlightAware ADS-B
Sun 07:19:44 PM 42.5470 -81.7140 39° Northeast 485 558 30,800 -880 Descending FlightAware ADS-B
Sun 07:20:28 PM 42.6390 -81.6070 41° Northeast 471 542 30,100 -911 Descending FlightAware ADS-B
Sun 07:21:03 PM 42.6960 -81.5430 40° Northeast 463 533 29,600 -750 Descending FlightAware ADS-B
Sun 07:21:40 PM 42.7560 -81.4740 40° Northeast 461 531 29,200 -429 Descending FlightAware ADS-B
Sun 07:22:13 PM 42.8100 -81.4120 40° Northeast 461 531 29,100 -171 Descending FlightAware ADS-B
Sun 07:22:50 PM 42.8700 -81.3440 40° Northeast 461 531 29,000 -348 Descending FlightAware ADS-B
Sun 07:23:22 PM 42.9220 -81.2820 41° Northeast 460 529 28,700 -636 Descending FlightAware ADS-B
Sun 07:23:56 PM 42.9770 -81.2210 39° Northeast 456 525 28,300 -750 Descending FlightAware ADS-B
Sun 07:24:34 PM 43.0370 -81.1470 42° Northeast 452 520 27,800 -750 Descending FlightAware ADS-B
Sun 07:25:08 PM 43.0810 -81.0720 51° Northeast 453 521 27,400 -1,130 Descending FlightAware ADS-B
Sun 07:25:43 PM 43.1250 -80.9910 53° Northeast 446 513 26,500 -1,714 Descending FlightAware ADS-B
Sun 07:26:18 PM 43.1680 -80.9150 52° Northeast 440 506 25,400 -2,055 Descending FlightAware ADS-B
Sun 07:26:56 PM 43.2150 -80.8290 53° Northeast 430 495 24,000 -2,219 Descending FlightAware ADS-B
Sun 07:27:31 PM 43.2560 -80.7540 53° Northeast 420 483 22,700 -2,000 Descending FlightAware ADS-B
Sun 07:28:02 PM 43.2900 -80.6920 53° Northeast 415 478 21,800 -2,060 Descending FlightAware ADS-B
Sun 07:28:38 PM 43.3340 -80.6100 54° Northeast 410 472 20,400 -2,137 Descending FlightAware ADS-B
Sun 07:29:15 PM 43.3750 -80.5350 53° Northeast 404 465 19,200 -2,057 Descending FlightAware ADS-B
Sun 07:29:48 PM 43.4110 -80.4700 53° Northeast 401 461 18,000 -2,118 Descending FlightAware ADS-B
Sun 07:30:23 PM 43.4490 -80.3990 54° Northeast 394 453 16,800 -2,036 Descending FlightAware ADS-B
Sun 07:30:44 PM 43.4670 -80.3500 63° Northeast 389 448 16,100 -1,500 Descending FlightAware ADS-B
Sun 07:31:19 PM 43.4880 -80.2710 70° East 363 418 15,400 -930 Descending FlightAware ADS-B
Sun 07:31:55 PM 43.5090 -80.1960 69° East 341 392 15,000 -1,151 Descending FlightAware ADS-B
Sun 07:32:32 PM 43.5280 -80.1200 71° East 336 387 14,000 -1,565 Descending FlightAware ADS-B
Sun 07:33:04 PM 43.5460 -80.0550 69° East 330 380 13,200 -2,239 Descending FlightAware ADS-B
Sun 07:33:39 PM 43.5640 -79.9850 70° East 352 405 11,500 -2,632 Descending FlightAware ADS-B
Sun 07:34:01 PM 43.5790 -79.9400 65° Northeast 353 406 10,700 -1,784 Descending FlightAware ADS-B
Sun 07:34:16 PM 43.5950 -79.9140 50° Northeast 344 396 10,400 -511 Descending FlightAware ADS-B
Sun 07:34:48 PM 43.6310 -79.8690 42° Northeast 311 358 10,300 -556 Descending FlightAware ADS-B
Sun 07:35:10 PM 43.6520 -79.8390 46° Northeast 304 350 9,900 -1,091 Descending FlightAware ADS-B
Sun 07:35:32 PM 43.6740 -79.8090 45° Northeast 299 344 9,500 -1,256 Descending FlightAware ADS-B
Sun 07:35:53 PM 43.6950 -79.7810 44° Northeast 296 341 9,000 -1,455 Descending FlightAware ADS-B
Sun 07:36:05 PM 43.7070 -79.7650 44° Northeast 294 338 8,700 -1,263 Descending FlightAware ADS-B
Sun 07:36:12 PM 43.7130 -79.7590 36° Northeast 292 336 8,600 -800 Descending FlightAware ADS-B
Sun 07:36:20 PM 43.7210 -79.7470 47° Northeast 289 333 8,500 -1,714 Descending FlightAware ADS-B
Sun 07:36:40 PM 43.7390 -79.7210 46° Northeast 284 327 7,800 -2,533 Descending FlightAware ADS-B
Sun 07:37:05 PM 43.7650 -79.6900 41° Northeast 290 334 6,600 -2,667 Descending FlightAware ADS-B
Sun 07:37:16 PM 43.7750 -79.6760 45° Northeast 292 336 6,200 -1,448 Descending FlightAware ADS-B
Sun 07:37:34 PM 43.7910 -79.6540 45° Northeast 287 330 5,900 -857 Descending FlightAware ADS-B
Sun 07:37:51 PM 43.8080 -79.6310 44° Northeast 274 315 5,700 -923 Descending FlightAware ADS-B
Sun 07:38:00 PM 43.8160 -79.6180 50° Northeast 269 310 5,500 -1,071 Descending FlightAware ADS-B
Sun 07:38:19 PM 43.8330 -79.5960 43° Northeast 258 297 5,200 -1,000 Descending FlightAware ADS-B
Sun 07:38:24 PM 43.8360 -79.5900 55° Northeast 257 296 5,100 -1,385 Descending FlightAware ADS-B
Sun 07:38:32 PM 43.8390 -79.5780 71° East 252 290 4,900 -1,500 Descending FlightAware ADS-B
Sun 07:38:40 PM 43.8400 -79.5670 83° East 245 282 4,700 -857 Descending FlightAware ADS-B
Sun 07:39:00 PM 43.8350 -79.5400 104° East 221 254 4,500 -686 Descending FlightAware ADS-B
Sun 07:39:15 PM 43.8300 -79.5220 111° Southeast 203 234 4,300 -900 Descending FlightAware ADS-B
Sun 07:39:20 PM 43.8260 -79.5160 133° Southeast 196 226 4,200 -1,429 Descending FlightAware ADS-B
Sun 07:39:36 PM 43.8120 -79.5090 160° South 179 206 3,800 -1,385 Descending FlightAware ADS-B
Sun 07:39:59 PM 43.7940 -79.5150 194° South 173 199 3,300 -1,200 Descending FlightAware ADS-B
Sun 07:40:11 PM 43.7850 -79.5180 194° South 171 197 3,100 -529 Descending FlightAware ADS-B
Sun 07:40:33 PM 43.7690 -79.5280 204° Southwest 168 193 3,000 -600 Descending FlightAware ADS-B
Sun 07:40:51 PM 43.7580 -79.5400 218° Southwest 165 190 2,700 -1,347 Descending FlightAware ADS-B
Sun 07:41:22 PM 43.7430 -79.5630 228° Southwest 167 192 1,900 -1,294 Descending FlightAware ADS-B
Sun 07:41:42 PM 43.7330 -79.5780 227° Southwest 149 171 1,600 -750 Descending FlightAware ADS-B
Sun 07:42:02 PM 43.7240 -79.5920 228° Southwest 154 177 1,400 -750 Descending FlightAware ADS-B
Sun 07:42:22 PM 43.7140 -79.6060 225° Southwest 153 176 1,100 -783 Descending FlightAware ADS-B
Sun 07:42:48 PM 43.7020 -79.6220 224° Southwest 148 170 800 -381 Descending FlightAware ADS-B
Sun 07:43:25 PM 43.6870 -79.6440 227° Southwest 148 170 700 -162 Descending FlightAware ADS-B

Login

Don't have an account? Register now (free) for customized features, flight alerts, and more!